sensor_id;sensor_type;location;lat;lon;timestamp;pressure;altitude;pressure_sealevel;temperature;humidity
63088;BME280;49173;43.164;27.786;2022-10-10T00:01:10;101325.66;;;15.30;63.78
63088;BME280;49173;43.164;27.786;2022-10-10T00:03:35;101326.31;;;15.34;63.57
63088;BME280;49173;43.164;27.786;2022-10-10T00:06:01;101329.22;;;15.31;63.42
63088;BME280;49173;43.164;27.786;2022-10-10T00:08:27;101318.91;;;15.37;63.22
63088;BME280;49173;43.164;27.786;2022-10-10T00:10:53;101315.50;;;15.34;63.21
63088;BME280;49173;43.164;27.786;2022-10-10T00:13:19;101325.28;;;15.36;63.21
63088;BME280;49173;43.164;27.786;2022-10-10T00:15:45;101327.03;;;15.37;63.25
63088;BME280;49173;43.164;27.786;2022-10-10T00:18:10;101323.44;;;15.37;63.16
63088;BME280;49173;43.164;27.786;2022-10-10T00:20:36;101327.09;;;15.36;63.22
63088;BME280;49173;43.164;27.786;2022-10-10T00:23:02;101331.06;;;15.30;63.47
63088;BME280;49173;43.164;27.786;2022-10-10T00:25:28;101323.72;;;15.32;63.44
63088;BME280;49173;43.164;27.786;2022-10-10T00:27:53;101327.38;;;15.31;63.42
63088;BME280;49173;43.164;27.786;2022-10-10T00:30:20;101330.97;;;15.32;63.38
63088;BME280;49173;43.164;27.786;2022-10-10T00:32:46;101334.53;;;15.32;63.60
63088;BME280;49173;43.164;27.786;2022-10-10T00:35:11;101328.41;;;15.29;63.69
63088;BME280;49173;43.164;27.786;2022-10-10T00:37:37;101333.75;;;15.30;63.73
63088;BME280;49173;43.164;27.786;2022-10-10T00:40:05;101342.84;;;15.29;63.77
63088;BME280;49173;43.164;27.786;2022-10-10T00:42:31;101336.91;;;15.23;63.83
63088;BME280;49173;43.164;27.786;2022-10-10T00:47:48;101339.09;;;15.16;64.41
63088;BME280;49173;43.164;27.786;2022-10-10T00:50:15;101345.53;;;15.14;64.63
63088;BME280;49173;43.164;27.786;2022-10-10T00:52:42;101338.41;;;15.13;64.78
63088;BME280;49173;43.164;27.786;2022-10-10T00:55:07;101341.09;;;15.13;64.78
63088;BME280;49173;43.164;27.786;2022-10-10T00:57:34;101342.75;;;15.15;64.66
63088;BME280;49173;43.164;27.786;2022-10-10T01:00:02;101349.22;;;15.13;64.82
63088;BME280;49173;43.164;27.786;2022-10-10T01:02:30;101340.34;;;15.10;65.03
63088;BME280;49173;43.164;27.786;2022-10-10T01:04:56;101342.25;;;15.08;64.83
63088;BME280;49173;43.164;27.786;2022-10-10T01:07:25;101345.03;;;15.07;65.01
63088;BME280;49173;43.164;27.786;2022-10-10T01:09:55;101343.28;;;15.06;65.32
63088;BME280;49173;43.164;27.786;2022-10-10T01:12:23;101347.16;;;15.02;65.39
63088;BME280;49173;43.164;27.786;2022-10-10T01:20:43;101373.38;;;15.00;65.53
63088;BME280;49173;43.164;27.786;2022-10-10T01:26:12;101369.72;;;14.85;65.85
63088;BME280;49173;43.164;27.786;2022-10-10T01:29:07;101376.09;;;14.84;66.05
63088;BME280;49173;43.164;27.786;2022-10-10T01:31:38;101373.81;;;14.76;65.97
63088;BME280;49173;43.164;27.786;2022-10-10T01:34:46;101375.03;;;14.71;66.40
63088;BME280;49173;43.164;27.786;2022-10-10T01:37:19;101376.00;;;14.70;66.84
63088;BME280;49173;43.164;27.786;2022-10-10T01:39:55;101382.03;;;14.75;66.95
63088;BME280;49173;43.164;27.786;2022-10-10T01:45:05;101379.94;;;14.80;66.80
63088;BME280;49173;43.164;27.786;2022-10-10T01:47:31;101380.63;;;14.83;66.51
63088;BME280;49173;43.164;27.786;2022-10-10T01:50:03;101381.50;;;14.84;66.83
63088;BME280;49173;43.164;27.786;2022-10-10T02:00:53;101382.56;;;14.81;66.28
63088;BME280;49173;43.164;27.786;2022-10-10T02:03:28;101372.44;;;14.85;66.29
63088;BME280;49173;43.164;27.786;2022-10-10T02:08:39;101375.31;;;14.82;66.21
63088;BME280;49173;43.164;27.786;2022-10-10T02:11:10;101379.03;;;14.64;67.14
63088;BME280;49173;43.164;27.786;2022-10-10T02:16:10;101388.34;;;14.58;67.05
63088;BME280;49173;43.164;27.786;2022-10-10T02:18:37;101382.88;;;14.60;67.06
63088;BME280;49173;43.164;27.786;2022-10-10T02:21:05;101392.00;;;14.57;67.11
63088;BME280;49173;43.164;27.786;2022-10-10T02:23:33;101392.00;;;14.57;67.45
63088;BME280;49173;43.164;27.786;2022-10-10T02:26:00;101386.69;;;14.55;67.48
63088;BME280;49173;43.164;27.786;2022-10-10T02:28:50;101396.88;;;14.50;67.53
63088;BME280;49173;43.164;27.786;2022-10-10T02:31:59;101400.63;;;14.48;67.86
63088;BME280;49173;43.164;27.786;2022-10-10T02:34:21;101405.84;;;14.51;67.94
63088;BME280;49173;43.164;27.786;2022-10-10T02:36:52;101404.19;;;14.48;67.75
63088;BME280;49173;43.164;27.786;2022-10-10T02:39:22;101414.28;;;14.45;67.93
63088;BME280;49173;43.164;27.786;2022-10-10T02:41:51;101417.22;;;14.40;67.75
63088;BME280;49173;43.164;27.786;2022-10-10T02:44:18;101416.25;;;14.41;67.96
63088;BME280;49173;43.164;27.786;2022-10-10T02:46:44;101423.31;;;14.44;67.88
63088;BME280;49173;43.164;27.786;2022-10-10T02:49:10;101427.16;;;14.40;67.98
63088;BME280;49173;43.164;27.786;2022-10-10T02:51:37;101428.16;;;14.37;68.10
63088;BME280;49173;43.164;27.786;2022-10-10T02:54:04;101437.31;;;14.35;68.19
63088;BME280;49173;43.164;27.786;2022-10-10T02:56:30;101438.38;;;14.32;68.32
63088;BME280;49173;43.164;27.786;2022-10-10T02:58:56;101441.84;;;14.34;68.36
63088;BME280;49173;43.164;27.786;2022-10-10T03:01:22;101441.75;;;14.36;68.49
63088;BME280;49173;43.164;27.786;2022-10-10T03:03:48;101437.41;;;14.33;68.71
63088;BME280;49173;43.164;27.786;2022-10-10T03:06:14;101448.75;;;14.40;68.33
63088;BME280;49173;43.164;27.786;2022-10-10T03:08:39;101449.63;;;14.40;68.43
63088;BME280;49173;43.164;27.786;2022-10-10T03:11:07;101456.13;;;14.36;68.73
63088;BME280;49173;43.164;27.786;2022-10-10T03:13:32;101459.81;;;14.35;68.49
63088;BME280;49173;43.164;27.786;2022-10-10T03:15:58;101465.16;;;14.19;68.93
63088;BME280;49173;43.164;27.786;2022-10-10T03:18:24;101470.09;;;14.11;69.22
63088;BME280;49173;43.164;27.786;2022-10-10T03:20:54;101469.91;;;14.14;69.14
63088;BME280;49173;43.164;27.786;2022-10-10T03:23:24;101474.75;;;14.25;68.70
63088;BME280;49173;43.164;27.786;2022-10-10T03:25:50;101472.53;;;14.16;68.94
63088;BME280;49173;43.164;27.786;2022-10-10T03:28:16;101465.69;;;14.09;69.35
63088;BME280;49173;43.164;27.786;2022-10-10T03:30:42;101476.66;;;14.06;69.35
63088;BME280;49173;43.164;27.786;2022-10-10T03:33:08;101484.94;;;14.02;69.49
63088;BME280;49173;43.164;27.786;2022-10-10T03:35:34;101472.38;;;14.01;69.45
63088;BME280;49173;43.164;27.786;2022-10-10T03:38:00;101467.06;;;14.00;69.82
63088;BME280;49173;43.164;27.786;2022-10-10T03:40:27;101471.25;;;14.06;69.29
63088;BME280;49173;43.164;27.786;2022-10-10T03:42:53;101473.09;;;14.05;69.41
63088;BME280;49173;43.164;27.786;2022-10-10T03:45:19;101472.78;;;14.11;69.10
63088;BME280;49173;43.164;27.786;2022-10-10T03:47:45;101467.53;;;14.08;69.17
63088;BME280;49173;43.164;27.786;2022-10-10T03:50:10;101466.34;;;14.14;68.90
63088;BME280;49173;43.164;27.786;2022-10-10T03:52:36;101475.22;;;14.16;69.04
63088;BME280;49173;43.164;27.786;2022-10-10T03:55:02;101468.25;;;14.12;69.09
63088;BME280;49173;43.164;27.786;2022-10-10T03:57:28;101466.66;;;14.08;69.02
63088;BME280;49173;43.164;27.786;2022-10-10T03:59:54;101472.53;;;14.16;68.50
63088;BME280;49173;43.164;27.786;2022-10-10T04:02:19;101470.31;;;14.07;68.71
63088;BME280;49173;43.164;27.786;2022-10-10T04:04:45;101473.56;;;13.96;69.08
63088;BME280;49173;43.164;27.786;2022-10-10T04:07:11;101477.84;;;14.00;68.91
63088;BME280;49173;43.164;27.786;2022-10-10T04:09:37;101483.81;;;14.07;68.79
63088;BME280;49173;43.164;27.786;2022-10-10T04:12:03;101482.72;;;14.11;68.83
63088;BME280;49173;43.164;27.786;2022-10-10T04:14:29;101485.41;;;14.11;68.54
63088;BME280;49173;43.164;27.786;2022-10-10T04:16:54;101476.19;;;14.15;68.39
63088;BME280;49173;43.164;27.786;2022-10-10T04:19:20;101491.75;;;14.10;68.24
63088;BME280;49173;43.164;27.786;2022-10-10T04:21:46;101495.06;;;14.15;68.49
63088;BME280;49173;43.164;27.786;2022-10-10T04:24:12;101486.88;;;14.16;68.23
63088;BME280;49173;43.164;27.786;2022-10-10T04:26:37;101491.41;;;14.16;68.26
63088;BME280;49173;43.164;27.786;2022-10-10T04:29:03;101494.94;;;14.18;68.19
63088;BME280;49173;43.164;27.786;2022-10-10T04:31:29;101496.75;;;14.17;68.33
63088;BME280;49173;43.164;27.786;2022-10-10T04:33:55;101498.50;;;14.18;68.21
63088;BME280;49173;43.164;27.786;2022-10-10T04:36:20;101502.06;;;14.19;68.04
63088;BME280;49173;43.164;27.786;2022-10-10T04:38:46;101507.69;;;14.14;68.34
63088;BME280;49173;43.164;27.786;2022-10-10T04:41:12;101513.34;;;14.10;68.41
63088;BME280;49173;43.164;27.786;2022-10-10T04:43:38;101509.69;;;14.11;68.66
63088;BME280;49173;43.164;27.786;2022-10-10T04:46:03;101519.69;;;14.09;68.90
63088;BME280;49173;43.164;27.786;2022-10-10T04:48:29;101517.25;;;14.04;68.93
63088;BME280;49173;43.164;27.786;2022-10-10T04:50:57;101518.41;;;13.98;69.19
63088;BME280;49173;43.164;27.786;2022-10-10T04:53:24;101527.38;;;13.99;69.33
63088;BME280;49173;43.164;27.786;2022-10-10T04:55:50;101533.53;;;14.02;69.65
63088;BME280;49173;43.164;27.786;2022-10-10T04:58:16;101537.00;;;14.05;69.61
63088;BME280;49173;43.164;27.786;2022-10-10T05:00:42;101528.66;;;14.09;69.63
63088;BME280;49173;43.164;27.786;2022-10-10T05:03:08;101527.66;;;14.12;69.48
63088;BME280;49173;43.164;27.786;2022-10-10T05:05:36;101524.84;;;14.13;69.49
63088;BME280;49173;43.164;27.786;2022-10-10T05:08:01;101525.66;;;14.15;69.63
63088;BME280;49173;43.164;27.786;2022-10-10T05:10:27;101531.00;;;14.17;69.87
63088;BME280;49173;43.164;27.786;2022-10-10T05:12:53;101529.06;;;14.19;69.74
63088;BME280;49173;43.164;27.786;2022-10-10T05:15:19;101533.28;;;14.24;69.49
63088;BME280;49173;43.164;27.786;2022-10-10T05:17:46;101536.59;;;14.29;69.79
63088;BME280;49173;43.164;27.786;2022-10-10T05:20:12;101539.16;;;14.33;69.50
63088;BME280;49173;43.164;27.786;2022-10-10T05:22:38;101544.41;;;14.36;68.98
63088;BME280;49173;43.164;27.786;2022-10-10T05:25:04;101541.59;;;14.37;68.40
63088;BME280;49173;43.164;27.786;2022-10-10T05:27:29;101553.22;;;14.39;68.38
63088;BME280;49173;43.164;27.786;2022-10-10T05:29:55;101557.59;;;14.42;68.25
63088;BME280;49173;43.164;27.786;2022-10-10T05:32:22;101565.59;;;14.43;68.66
63088;BME280;49173;43.164;27.786;2022-10-10T05:34:47;101570.03;;;14.46;68.87
63088;BME280;49173;43.164;27.786;2022-10-10T05:37:14;101570.72;;;14.49;69.13
63088;BME280;49173;43.164;27.786;2022-10-10T05:39:40;101577.72;;;14.53;69.05
63088;BME280;49173;43.164;27.786;2022-10-10T05:42:06;101579.28;;;14.57;68.68
63088;BME280;49173;43.164;27.786;2022-10-10T05:44:31;101579.72;;;14.67;68.59
63088;BME280;49173;43.164;27.786;2022-10-10T05:46:58;101582.56;;;14.81;68.33
63088;BME280;49173;43.164;27.786;2022-10-10T05:49:24;101573.19;;;15.04;67.80
63088;BME280;49173;43.164;27.786;2022-10-10T05:51:50;101579.47;;;15.38;66.28
63088;BME280;49173;43.164;27.786;2022-10-10T05:54:16;101575.25;;;15.65;65.41
63088;BME280;49173;43.164;27.786;2022-10-10T05:56:42;101578.00;;;16.11;65.16
63088;BME280;49173;43.164;27.786;2022-10-10T05:59:08;101581.53;;;16.58;62.99
63088;BME280;49173;43.164;27.786;2022-10-10T06:01:35;101576.97;;;16.88;60.78
63088;BME280;49173;43.164;27.786;2022-10-10T06:04:01;101579.09;;;16.97;59.76
63088;BME280;49173;43.164;27.786;2022-10-10T06:06:26;101584.03;;;16.91;59.07
63088;BME280;49173;43.164;27.786;2022-10-10T06:08:52;101580.75;;;16.71;59.46
63088;BME280;49173;43.164;27.786;2022-10-10T06:11:18;101588.00;;;16.55;59.45
63088;BME280;49173;43.164;27.786;2022-10-10T06:13:45;101593.84;;;16.33;59.35
63088;BME280;49173;43.164;27.786;2022-10-10T06:16:14;101589.94;;;16.23;60.06
63088;BME280;49173;43.164;27.786;2022-10-10T06:18:39;101598.34;;;16.18;59.49
63088;BME280;49173;43.164;27.786;2022-10-10T06:21:06;101589.53;;;16.15;59.59
63088;BME280;49173;43.164;27.786;2022-10-10T06:23:33;101598.69;;;16.12;59.76
63088;BME280;49173;43.164;27.786;2022-10-10T06:25:59;101592.31;;;16.13;59.77
63088;BME280;49173;43.164;27.786;2022-10-10T06:28:25;101593.28;;;16.12;59.28
63088;BME280;49173;43.164;27.786;2022-10-10T06:30:51;101603.31;;;16.10;59.17
63088;BME280;49173;43.164;27.786;2022-10-10T06:33:17;101599.84;;;16.08;58.81
63088;BME280;49173;43.164;27.786;2022-10-10T06:35:46;101600.63;;;16.10;58.44
63088;BME280;49173;43.164;27.786;2022-10-10T06:38:14;101602.72;;;16.05;57.80
63088;BME280;49173;43.164;27.786;2022-10-10T06:40:40;101595.56;;;16.04;57.94
63088;BME280;49173;43.164;27.786;2022-10-10T06:43:07;101605.25;;;16.08;57.45
63088;BME280;49173;43.164;27.786;2022-10-10T06:45:41;101598.78;;;16.11;57.30
63088;BME280;49173;43.164;27.786;2022-10-10T06:48:08;101604.28;;;16.09;56.78
63088;BME280;49173;43.164;27.786;2022-10-10T06:50:34;101607.34;;;16.03;56.27
63088;BME280;49173;43.164;27.786;2022-10-10T06:53:00;101603.53;;;16.07;56.65
63088;BME280;49173;43.164;27.786;2022-10-10T06:55:26;101618.63;;;16.11;56.81
63088;BME280;49173;43.164;27.786;2022-10-10T06:57:52;101607.97;;;16.08;56.11
63088;BME280;49173;43.164;27.786;2022-10-10T07:00:18;101611.72;;;16.06;56.19
63088;BME280;49173;43.164;27.786;2022-10-10T07:02:44;101612.31;;;16.11;56.05
63088;BME280;49173;43.164;27.786;2022-10-10T07:05:12;101616.09;;;16.08;55.58
63088;BME280;49173;43.164;27.786;2022-10-10T07:07:38;101617.06;;;16.07;55.59
63088;BME280;49173;43.164;27.786;2022-10-10T07:10:06;101616.00;;;16.10;55.35
63088;BME280;49173;43.164;27.786;2022-10-10T07:12:32;101612.31;;;16.11;55.00
63088;BME280;49173;43.164;27.786;2022-10-10T07:14:57;101611.72;;;15.90;55.35
63088;BME280;49173;43.164;27.786;2022-10-10T07:17:23;101612.97;;;16.00;55.63
63088;BME280;49173;43.164;27.786;2022-10-10T07:19:49;101609.53;;;16.12;55.99
63088;BME280;49173;43.164;27.786;2022-10-10T07:22:14;101616.63;;;16.15;54.77
63088;BME280;49173;43.164;27.786;2022-10-10T07:24:40;101611.72;;;16.22;54.71
63088;BME280;49173;43.164;27.786;2022-10-10T07:27:06;101611.88;;;16.18;54.28
63088;BME280;49173;43.164;27.786;2022-10-10T07:29:32;101612.06;;;16.15;54.56
63088;BME280;49173;43.164;27.786;2022-10-10T07:31:58;101606.97;;;16.25;54.75
63088;BME280;49173;43.164;27.786;2022-10-10T07:34:23;101614.38;;;16.37;54.39
63088;BME280;49173;43.164;27.786;2022-10-10T07:36:49;101620.13;;;16.47;53.76
63088;BME280;49173;43.164;27.786;2022-10-10T07:39:19;101609.19;;;16.48;53.02
63088;BME280;49173;43.164;27.786;2022-10-10T07:41:45;101609.38;;;16.45;52.48
63088;BME280;49173;43.164;27.786;2022-10-10T07:44:11;101610.94;;;16.50;52.27
63088;BME280;49173;43.164;27.786;2022-10-10T07:46:38;101603.50;;;16.53;52.58
63088;BME280;49173;43.164;27.786;2022-10-10T07:49:03;101602.00;;;16.63;52.34
63088;BME280;49173;43.164;27.786;2022-10-10T07:51:29;101599.28;;;16.63;52.45
63088;BME280;49173;43.164;27.786;2022-10-10T07:53:55;101608.84;;;16.69;52.61
63088;BME280;49173;43.164;27.786;2022-10-10T07:56:21;101603.19;;;16.73;52.05
63088;BME280;49173;43.164;27.786;2022-10-10T07:58:46;101600.22;;;16.78;51.86
63088;BME280;49173;43.164;27.786;2022-10-10T08:01:12;101595.56;;;16.80;51.36
63088;BME280;49173;43.164;27.786;2022-10-10T08:03:38;101599.81;;;16.84;51.55
63088;BME280;49173;43.164;27.786;2022-10-10T08:06:06;101604.78;;;16.92;51.09
63088;BME280;49173;43.164;27.786;2022-10-10T08:08:33;101606.69;;;16.90;51.08
63088;BME280;49173;43.164;27.786;2022-10-10T08:11:02;101602.25;;;16.89;50.57
63088;BME280;49173;43.164;27.786;2022-10-10T08:13:28;101596.56;;;16.93;50.69
63088;BME280;49173;43.164;27.786;2022-10-10T08:15:54;101591.13;;;16.93;50.64
63088;BME280;49173;43.164;27.786;2022-10-10T08:18:19;101595.09;;;16.88;50.68
63088;BME280;49173;43.164;27.786;2022-10-10T08:20:45;101591.41;;;16.89;51.12
63088;BME280;49173;43.164;27.786;2022-10-10T08:23:11;101599.38;;;16.92;50.35
63088;BME280;49173;43.164;27.786;2022-10-10T08:25:37;101599.81;;;16.84;51.03
63088;BME280;49173;43.164;27.786;2022-10-10T08:28:03;101589.66;;;16.88;50.31
63088;BME280;49173;43.164;27.786;2022-10-10T08:30:29;101582.69;;;16.98;50.75
63088;BME280;49173;43.164;27.786;2022-10-10T08:32:55;101581.81;;;16.97;50.45
63088;BME280;49173;43.164;27.786;2022-10-10T08:35:21;101585.34;;;16.99;50.36
63088;BME280;49173;43.164;27.786;2022-10-10T08:37:47;101586.59;;;17.08;50.34
63088;BME280;49173;43.164;27.786;2022-10-10T08:40:18;101589.78;;;17.15;50.05
63088;BME280;49173;43.164;27.786;2022-10-10T08:42:49;101575.16;;;17.17;50.03
63088;BME280;49173;43.164;27.786;2022-10-10T08:45:20;101580.94;;;17.25;49.15
63088;BME280;49173;43.164;27.786;2022-10-10T08:47:53;101578.84;;;17.30;49.28
63088;BME280;49173;43.164;27.786;2022-10-10T08:52:58;101578.06;;;17.43;48.92
63088;BME280;49173;43.164;27.786;2022-10-10T08:55:33;101582.13;;;17.50;48.57
63088;BME280;49173;43.164;27.786;2022-10-10T08:58:20;101587.44;;;17.51;48.04
63088;BME280;49173;43.164;27.786;2022-10-10T09:03:26;101594.09;;;17.60;46.98
63088;BME280;49173;43.164;27.786;2022-10-10T09:08:24;101579.16;;;17.67;45.75
63088;BME280;49173;43.164;27.786;2022-10-10T09:11:01;101582.50;;;17.72;45.89
63088;BME280;49173;43.164;27.786;2022-10-10T09:13:30;101583.06;;;17.77;45.44
63088;BME280;49173;43.164;27.786;2022-10-10T09:21:58;101593.78;;;17.93;43.83
63088;BME280;49173;43.164;27.786;2022-10-10T09:24:32;101586.88;;;18.02;43.27
63088;BME280;49173;43.164;27.786;2022-10-10T09:27:02;101580.03;;;18.09;42.61
63088;BME280;49173;43.164;27.786;2022-10-10T09:29:36;101574.09;;;18.17;42.49
63088;BME280;49173;43.164;27.786;2022-10-10T09:32:15;101580.56;;;18.28;42.79
63088;BME280;49173;43.164;27.786;2022-10-10T09:35:19;101571.47;;;18.42;40.95
63088;BME280;49173;43.164;27.786;2022-10-10T09:37:48;101570.69;;;18.40;41.16
63088;BME280;49173;43.164;27.786;2022-10-10T09:40:32;101562.09;;;18.46;41.41
63088;BME280;49173;43.164;27.786;2022-10-10T09:43:13;101561.22;;;18.46;41.69
63088;BME280;49173;43.164;27.786;2022-10-10T09:45:45;101561.22;;;18.46;40.69
63088;BME280;49173;43.164;27.786;2022-10-10T09:48:15;101568.31;;;18.48;41.00
63088;BME280;49173;43.164;27.786;2022-10-10T09:50:41;101558.31;;;18.49;40.79
63088;BME280;49173;43.164;27.786;2022-10-10T09:53:13;101557.09;;;18.53;41.24
63088;BME280;49173;43.164;27.786;2022-10-10T09:55:41;101556.16;;;18.54;40.97
63088;BME280;49173;43.164;27.786;2022-10-10T10:01:10;101551.25;;;18.59;39.93
63088;BME280;49173;43.164;27.786;2022-10-10T10:03:37;101546.59;;;18.61;39.92
63088;BME280;49173;43.164;27.786;2022-10-10T10:06:02;101546.19;;;18.67;39.61
63088;BME280;49173;43.164;27.786;2022-10-10T10:08:33;101545.22;;;18.68;39.10
63088;BME280;49173;43.164;27.786;2022-10-10T10:11:00;101543.16;;;18.72;39.26
63088;BME280;49173;43.164;27.786;2022-10-10T10:13:33;101536.59;;;18.74;38.35
63088;BME280;49173;43.164;27.786;2022-10-10T10:16:00;101532.94;;;18.75;38.44
63088;BME280;49173;43.164;27.786;2022-10-10T10:18:28;101536.41;;;18.77;38.79
63088;BME280;49173;43.164;27.786;2022-10-10T10:26:02;101533.78;;;18.88;38.96
63088;BME280;49173;43.164;27.786;2022-10-10T10:28:31;101525.19;;;18.94;38.88
63088;BME280;49173;43.164;27.786;2022-10-10T10:31:04;101526.41;;;19.03;38.84
63088;BME280;49173;43.164;27.786;2022-10-10T10:55:38;101504.44;;;19.30;36.60
63088;BME280;49173;43.164;27.786;2022-10-10T11:01:03;101502.13;;;19.37;35.83
63088;BME280;49173;43.164;27.786;2022-10-10T11:03:57;101507.00;;;19.44;36.63
63088;BME280;49173;43.164;27.786;2022-10-10T11:09:38;101488.72;;;19.59;36.02
63088;BME280;49173;43.164;27.786;2022-10-10T11:12:31;101486.50;;;19.64;36.02
63088;BME280;49173;43.164;27.786;2022-10-10T11:17:38;101493.09;;;19.73;36.70
63088;BME280;49173;43.164;27.786;2022-10-10T11:23:00;101476.44;;;19.78;36.16
63088;BME280;49173;43.164;27.786;2022-10-10T11:25:32;101477.81;;;19.83;38.55
63088;BME280;49173;43.164;27.786;2022-10-10T11:28:09;101473.00;;;19.87;39.17
63088;BME280;49173;43.164;27.786;2022-10-10T11:30:50;101473.00;;;19.87;38.74
63088;BME280;49173;43.164;27.786;2022-10-10T11:33:25;101469.94;;;19.91;39.02
63088;BME280;49173;43.164;27.786;2022-10-10T11:36:07;101477.63;;;19.97;39.12
63088;BME280;49173;43.164;27.786;2022-10-10T11:41:35;101468.59;;;19.97;38.59
63088;BME280;49173;43.164;27.786;2022-10-10T11:44:04;101467.19;;;19.91;39.52
63088;BME280;49173;43.164;27.786;2022-10-10T11:49:16;101467.44;;;19.88;39.47
63088;BME280;49173;43.164;27.786;2022-10-10T11:52:20;101467.19;;;19.91;39.86
63088;BME280;49173;43.164;27.786;2022-10-10T11:55:09;101467.72;;;19.96;39.00
63088;BME280;49173;43.164;27.786;2022-10-10T11:57:43;101462.81;;;20.01;39.16
63088;BME280;49173;43.164;27.786;2022-10-10T12:00:16;101480.22;;;19.99;38.86
63088;BME280;49173;43.164;27.786;2022-10-10T12:02:44;101459.78;;;19.93;38.17
63088;BME280;49173;43.164;27.786;2022-10-10T12:05:29;101456.56;;;19.88;38.75
63088;BME280;49173;43.164;27.786;2022-10-10T12:11:00;101459.03;;;19.91;39.30
63088;BME280;49173;43.164;27.786;2022-10-10T12:13:36;101460.28;;;19.98;39.24
63088;BME280;49173;43.164;27.786;2022-10-10T12:16:09;101460.16;;;20.00;38.70
63088;BME280;49173;43.164;27.786;2022-10-10T12:21:08;101463.41;;;20.05;38.63
63088;BME280;49173;43.164;27.786;2022-10-10T12:23:34;101463.81;;;20.12;38.91
63088;BME280;49173;43.164;27.786;2022-10-10T12:26:01;101464.34;;;20.17;39.35
63088;BME280;49173;43.164;27.786;2022-10-10T12:28:37;101474.63;;;20.24;39.95
63088;BME280;49173;43.164;27.786;2022-10-10T12:31:32;101470.53;;;20.19;40.12
63088;BME280;49173;43.164;27.786;2022-10-10T12:34:18;101473.19;;;20.08;39.77
63088;BME280;49173;43.164;27.786;2022-10-10T12:37:22;101478.56;;;20.09;40.84
63088;BME280;49173;43.164;27.786;2022-10-10T12:40:21;101477.50;;;19.99;41.60
63088;BME280;49173;43.164;27.786;2022-10-10T12:47:56;101488.28;;;20.00;43.41
63088;BME280;49173;43.164;27.786;2022-10-10T12:53:01;101486.81;;;19.96;43.43
63088;BME280;49173;43.164;27.786;2022-10-10T12:55:30;101492.72;;;19.90;44.59
63088;BME280;49173;43.164;27.786;2022-10-10T12:58:07;101486.63;;;19.87;46.01
63088;BME280;49173;43.164;27.786;2022-10-10T13:00:45;101493.19;;;19.84;46.80
63088;BME280;49173;43.164;27.786;2022-10-10T13:03:15;101490.00;;;19.90;47.49
63088;BME280;49173;43.164;27.786;2022-10-10T13:05:42;101494.38;;;19.80;47.27
63088;BME280;49173;43.164;27.786;2022-10-10T13:08:16;101493.47;;;19.68;48.04
63088;BME280;49173;43.164;27.786;2022-10-10T13:11:03;101500.13;;;19.64;49.52
63088;BME280;49173;43.164;27.786;2022-10-10T13:13:29;101496.31;;;19.67;50.09
63088;BME280;49173;43.164;27.786;2022-10-10T13:15:56;101503.03;;;19.74;49.98
63088;BME280;49173;43.164;27.786;2022-10-10T13:18:40;101505.44;;;19.66;50.41
63088;BME280;49173;43.164;27.786;2022-10-10T13:21:08;101498.50;;;19.62;50.70
63088;BME280;49173;43.164;27.786;2022-10-10T13:23:46;101491.75;;;19.55;51.24
63088;BME280;49173;43.164;27.786;2022-10-10T13:26:36;101487.63;;;19.49;51.37
63088;BME280;49173;43.164;27.786;2022-10-10T13:34:55;101500.69;;;19.44;52.13
63088;BME280;49173;43.164;27.786;2022-10-10T13:37:23;101500.28;;;19.37;52.00
63088;BME280;49173;43.164;27.786;2022-10-10T13:39:51;101504.88;;;19.37;51.91
63088;BME280;49173;43.164;27.786;2022-10-10T13:42:33;101502.25;;;19.35;52.46
63088;BME280;49173;43.164;27.786;2022-10-10T13:45:00;101503.25;;;19.34;52.98
63088;BME280;49173;43.164;27.786;2022-10-10T13:50:35;101492.03;;;19.39;52.96
63088;BME280;49173;43.164;27.786;2022-10-10T14:04:27;101474.56;;;19.17;52.57
63088;BME280;49173;43.164;27.786;2022-10-10T14:07:03;101485.94;;;19.23;52.72
63088;BME280;49173;43.164;27.786;2022-10-10T14:09:42;101489.63;;;19.34;52.54
63088;BME280;49173;43.164;27.786;2022-10-10T14:12:31;101485.94;;;19.35;52.19
63088;BME280;49173;43.164;27.786;2022-10-10T14:14:59;101486.38;;;19.29;52.54
63088;BME280;49173;43.164;27.786;2022-10-10T14:17:26;101484.56;;;19.17;52.07
63088;BME280;49173;43.164;27.786;2022-10-10T14:19:53;101481.88;;;19.04;51.95
63088;BME280;49173;43.164;27.786;2022-10-10T14:22:20;101480.78;;;19.07;52.54
63088;BME280;49173;43.164;27.786;2022-10-10T14:24:46;101484.25;;;19.09;52.65
63088;BME280;49173;43.164;27.786;2022-10-10T14:27:21;101478.16;;;19.05;52.69
63088;BME280;49173;43.164;27.786;2022-10-10T14:29:48;101479.78;;;19.08;52.75
63088;BME280;49173;43.164;27.786;2022-10-10T14:32:15;101476.88;;;18.85;53.37
63088;BME280;49173;43.164;27.786;2022-10-10T14:34:41;101476.13;;;18.83;53.71
63088;BME280;49173;43.164;27.786;2022-10-10T14:39:42;101481.78;;;18.80;54.17
63088;BME280;49173;43.164;27.786;2022-10-10T14:42:13;101475.69;;;18.77;54.35
63088;BME280;49173;43.164;27.786;2022-10-10T14:44:39;101485.16;;;18.71;54.46
63088;BME280;49173;43.164;27.786;2022-10-10T14:47:05;101490.84;;;18.68;54.67
63088;BME280;49173;43.164;27.786;2022-10-10T14:49:31;101477.53;;;18.63;54.89
63088;BME280;49173;43.164;27.786;2022-10-10T14:51:57;101483.38;;;18.57;54.92
63088;BME280;49173;43.164;27.786;2022-10-10T14:54:23;101477.75;;;18.48;55.29
63088;BME280;49173;43.164;27.786;2022-10-10T14:56:48;101482.50;;;18.44;55.48